This is the latest recevied weather packets stored in our database for station/object WBGG. If no packets are shown the sender has not sent any weather packets the latest 10 day(s).
| Time | Temp. | Humidity | Pressure | Rain* | Wind** | Luminosity | Snow |
|---|---|---|---|---|---|---|---|
| 1777995589 | 25° C | 94% | 1010 hPa | - | - | - | - |
| 1777995006 | 25° C | 94% | 1010 hPa | - | - | - | - |
| 1777994423 | 25° C | 98% | 1010.8 hPa | - | - | - | - |
| 1777993806 | 25° C | 94% | 1010 hPa | - | - | - | - |
| 1777991990 | 25.56° C | 88% | 1010 hPa | - | - | - | - |
| 1777990208 | 25.56° C | 88% | 1010 hPa | - | - | - | - |
| 1777988388 | 25.56° C | 88% | 1009 hPa | - | - | - | - |
| 1777986616 | 26.67° C | 83% | 1009 hPa | - | - | - | - |
| 1777984788 | 26.67° C | 88% | 1009 hPa | - | - | - | - |
| 1777981188 | 28.89° C | 79% | 1007 hPa | - | - | - | - |
| 1777975808 | 30° C | 74% | 1006 hPa | - | - | - | - |
| 1777973988 | 30° C | 74% | 1006 hPa | - | - | - | - |
| 1777972788 | 30° C | 74% | 1006 hPa | - | - | - | - |
| 1777972212 | 30° C | 74% | 1006 hPa | - | - | - | - |
| 1777970388 | 30.56° C | 74% | 1005 hPa | - | - | - | - |
| 1777968606 | 30.56° C | 74% | 1005 hPa | - | - | - | - |
| 1777966788 | 32.78° C | 62% | 1005 hPa | - | - | - | - |
| 1777965007 | 33.89° C | 59% | 1006 hPa | - | - | - | - |
| 1777963189 | 33.89° C | 59% | 1006 hPa | - | - | - | - |
| 1777961407 | 33.89° C | 59% | 1006 hPa | - | - | - | - |
| 1777959588 | 32.78° C | 66% | 1007 hPa | - | - | - | - |
| 1777957812 | 32.78° C | 62% | 1007 hPa | - | - | - | - |
| 1777955987 | 31.67° C | 66% | 1008 hPa | - | - | - | - |
| 1777954205 | 30.56° C | 66% | 1008 hPa | - | - | - | - |
| 1777943405 | 26.67° C | 83% | 1011 hPa | - | - | - | - |
* Rain since midnight (hover to see other rain measurements)
** Current wind speed in m/s (hover to see current wind gust speed)